createdAt,value
2023-04-02T01:48:02.095Z,9.00
2023-04-02T02:47:01.461Z,7.32
2023-04-02T02:52:03.043Z,4.93
2023-04-02T02:57:07.890Z,8.00
2023-04-02T03:01:59.001Z,6.20
2023-04-02T03:06:53.185Z,7.20
2023-04-02T03:12:05.017Z,7.50
2023-04-02T03:17:09.389Z,6.38
2023-04-02T03:22:09.707Z,10.20
2023-04-02T03:27:23.994Z,10.10
2023-04-02T03:32:23.680Z,9.10
2023-04-02T03:37:22.547Z,9.35
2023-04-02T03:42:23.082Z,8.50
2023-04-02T03:47:23.218Z,9.03
2023-04-02T03:52:17.815Z,8.68
2023-04-02T03:57:22.882Z,8.88
2023-04-02T04:02:31.177Z,8.05
2023-04-02T04:07:33.594Z,7.38
2023-04-02T04:12:32.674Z,7.70
2023-04-02T04:17:35.268Z,7.93
2023-04-02T04:22:30.778Z,8.32
2023-04-02T04:27:38.085Z,8.32
2023-04-02T04:32:35.822Z,8.27
2023-04-02T04:37:41.504Z,9.02
2023-04-02T04:42:40.171Z,9.15
2023-04-02T04:47:39.381Z,8.70
2023-04-02T04:52:39.003Z,8.20
2023-04-02T04:57:35.124Z,9.32
2023-04-02T05:02:39.311Z,8.43
2023-04-02T05:07:33.834Z,7.57
2023-04-02T05:12:40.334Z,8.90
2023-04-02T05:17:42.038Z,7.80
2023-04-02T05:22:41.823Z,6.80
2023-04-02T05:27:57.792Z,7.45
2023-04-02T05:32:59.345Z,7.00
2023-04-02T05:37:53.224Z,8.63
2023-04-02T05:42:51.014Z,6.73
2023-04-02T05:47:49.207Z,6.43
2023-04-02T05:52:55.397Z,6.65
2023-04-02T06:28:05.539Z,3.03
2023-04-02T06:33:04.705Z,2.95
2023-04-02T06:38:01.263Z,6.63
2023-04-02T06:43:00.520Z,5.37
2023-04-02T06:48:20.218Z,4.68
2023-04-02T06:53:25.765Z,3.97
2023-04-02T06:58:23.129Z,4.00
2023-04-02T07:03:23.180Z,3.90
2023-04-02T07:08:18.787Z,3.00
2023-04-02T07:13:11.799Z,3.20
2023-04-02T07:18:08.974Z,2.88
2023-04-02T07:23:03.162Z,2.30
2023-04-02T07:27:55.991Z,1.50
2023-04-02T07:32:46.866Z,1.35
2023-04-02T07:37:44.663Z,2.00
2023-04-02T07:42:37.064Z,2.55
2023-04-02T07:47:28.912Z,1.90
2023-04-02T07:52:21.365Z,2.25
2023-04-02T07:57:15.000Z,2.47
2023-04-02T08:02:06.252Z,3.05
2023-04-02T08:06:59.363Z,2.42
2023-04-02T08:11:50.526Z,2.78
2023-04-02T08:16:57.705Z,2.90
2023-04-02T08:21:52.492Z,3.10
2023-04-02T08:26:48.277Z,3.58
2023-04-02T08:31:41.214Z,4.33
2023-04-02T08:36:40.314Z,4.57
2023-04-02T08:41:35.873Z,5.03
2023-04-02T08:46:34.214Z,4.80
2023-04-02T08:51:31.451Z,4.20
2023-04-02T08:56:33.035Z,4.60
2023-04-02T09:01:35.203Z,3.88
2023-04-02T09:06:32.912Z,2.92
2023-04-02T09:11:38.849Z,2.42
2023-04-02T09:16:46.911Z,3.10
2023-04-02T09:21:50.178Z,2.50
2023-04-02T09:26:43.143Z,2.40
2023-04-02T09:31:41.271Z,3.30
2023-04-02T09:36:44.255Z,2.65
2023-04-02T09:41:40.729Z,3.00
2023-04-02T09:46:37.645Z,2.10
2023-04-02T09:51:35.443Z,3.38
2023-04-02T09:56:29.233Z,2.60
2023-04-02T10:01:41.014Z,2.13
2023-04-02T10:06:38.172Z,1.80
2023-04-02T10:11:54.414Z,1.67
2023-04-02T10:16:54.604Z,1.80
2023-04-02T10:21:50.164Z,1.98
2023-04-02T10:26:56.423Z,1.87
2023-04-02T10:32:04.194Z,2.72
2023-04-02T10:36:58.566Z,3.47
2023-04-02T10:42:05.490Z,3.60
2023-04-02T10:47:10.521Z,3.53
2023-04-02T10:52:16.689Z,4.05
2023-04-02T10:57:21.759Z,5.47
2023-04-02T11:02:39.936Z,3.67
2023-04-02T11:07:36.998Z,5.90
2023-04-02T11:12:41.577Z,6.22
2023-04-02T11:17:37.388Z,4.93
2023-04-02T11:22:39.138Z,4.83
2023-04-02T11:27:38.769Z,3.78
2023-04-02T11:32:39.380Z,4.70
2023-04-02T11:39:57.363Z,2.20
2023-04-02T11:44:48.923Z,1.50
2023-04-02T11:50:01.645Z,1.60
2023-04-02T11:55:06.601Z,1.40
2023-04-02T12:00:18.318Z,1.02
2023-04-02T12:05:30.934Z,0.90
2023-04-02T12:15:41.479Z,1.23
2023-04-02T19:08:40.261Z,0.60
2023-04-02T19:13:32.071Z,0.50
2023-04-02T19:18:34.349Z,0.63
2023-04-02T19:23:42.557Z,0.52
2023-04-02T19:28:37.806Z,1.02
2023-04-02T19:33:51.362Z,0.50
2023-04-02T19:38:59.983Z,0.50
2023-04-02T19:43:51.960Z,0.98
